Terminal Aerodrome Forecast
Issued by NWS

Home | Current Version | Previous Version | Text Only | Print | Product List | Glossary On
Versions: 1 2 3 4 5 6 7 8 9 10 11 12 13 14
824
FTUS41 KBTV 221124
TAFRUT
TAF
KRUT 221124Z 2212/2312 17006KT P6SM SCT200
     FM221900 20011G18KT P6SM VCSH SCT035 BKN040
     FM222100 19010G17KT P6SM SHRA VCTS SCT040CB BKN060
      TEMPO 2223/2303 3SM -TSRA BR BKN020CB
     FM231100 26008KT P6SM SCT030 BKN150=

USA.gov is the U.S. government's official web portal to all federal, state and local government web resources and services.